Time;durP1;ratioP1;P1;durP2;ratioP2;P2;SDS_P1;SDS_P2;PMS_P1;PMS_P2;Temp;Humidity;BMP_temperature;BMP_pressure;BME280_temperature;BME280_humidity;BME280_pressure;Samples;Min_cycle;Max_cycle;Signal;HPM_P1;HPM_P2
2023/01/12 00:01:14;;;;;;;7.75;1.92;;;;;;;;;;6250546;22;20078;-82
2023/01/12 00:03:40;;;;;;;8.20;1.88;;;;;;;;;;6250576;22;20749;-81
2023/01/12 00:06:07;;;;;;;16.13;2.42;;;;;;;;;;6251071;22;20026;-81
2023/01/12 00:08:33;;;;;;;10.57;2.35;;;;;;;;;;6251735;22;20028;-81
2023/01/12 00:11:00;;;;;;;14.98;2.25;;;;;;;;;;6226691;22;20024;-82
2023/01/12 00:13:28;;;;;;;14.25;2.28;;;;;;;;;;6249590;22;20021;-81
2023/01/12 00:18:46;;;;;;;11.52;2.20;;;;;;;;;;6250409;22;20167;-82
2023/01/12 00:21:13;;;;;;;16.58;2.72;;;;;;;;;;6252515;22;20035;-82
2023/01/12 00:23:39;;;;;;;12.13;2.00;;;;;;;;;;6251540;22;20025;-81
2023/01/12 00:26:07;;;;;;;14.07;2.33;;;;;;;;;;6250419;22;20088;-82
2023/01/12 00:28:34;;;;;;;10.10;1.85;;;;;;;;;;6251699;22;20017;-81
2023/01/12 00:31:01;;;;;;;12.85;2.30;;;;;;;;;;6250319;22;20025;-81
2023/01/12 00:33:27;;;;;;;15.82;2.42;;;;;;;;;;6251147;22;20021;-81
2023/01/12 00:35:54;;;;;;;17.92;2.75;;;;;;;;;;6250838;22;20017;-82
2023/01/12 00:38:20;;;;;;;16.60;2.88;;;;;;;;;;6224366;22;20013;-81
2023/01/12 00:40:46;;;;;;;13.73;2.38;;;;;;;;;;6250915;22;20739;-81
2023/01/12 00:45:59;;;;;;;20.83;3.00;;;;;;;;;;6249582;22;20090;-81
2023/01/12 00:48:26;;;;;;;26.23;2.90;;;;;;;;;;6249764;22;20068;-82
2023/01/12 00:50:52;;;;;;;21.13;3.40;;;;;;;;;;6250382;22;20032;-81
2023/01/12 00:53:18;;;;;;;22.25;3.10;;;;;;;;;;6251552;22;20020;-82
2023/01/12 00:55:45;;;;;;;24.58;3.08;;;;;;;;;;6250705;22;20095;-81
2023/01/12 00:58:11;;;;;;;23.25;3.53;;;;;;;;;;6224382;22;20029;-80
2023/01/12 01:00:38;;;;;;;15.88;3.03;;;;;;;;;;6251829;22;20528;-81
2023/01/12 01:03:04;;;;;;;19.25;2.90;;;;;;;;;;6224765;22;20023;-80
2023/01/12 01:05:30;;;;;;;21.08;3.35;;;;;;;;;;6252710;22;20021;-80
2023/01/12 01:07:58;;;;;;;18.50;3.70;;;;;;;;;;6224867;22;20020;-81
2023/01/12 01:10:24;;;;;;;26.20;3.63;;;;;;;;;;6250857;22;20605;-81
2023/01/12 01:12:51;;;;;;;18.92;3.45;;;;;;;;;;6251590;22;20025;-81
2023/01/12 01:15:17;;;;;;;22.05;3.65;;;;;;;;;;6251425;22;20021;-80
2023/01/12 01:17:43;;;;;;;20.65;4.60;;;;;;;;;;6224968;22;20039;-81
2023/01/12 01:20:10;;;;;;;21.00;3.47;;;;;;;;;;6251059;22;20023;-81
2023/01/12 01:22:37;;;;;;;19.83;4.28;;;;;;;;;;6251178;22;20951;-81
2023/01/12 01:25:03;;;;;;;22.23;4.03;;;;;;;;;;6250103;22;20489;-80
2023/01/12 01:27:30;;;;;;;18.02;4.35;;;;;;;;;;6250231;22;20021;-81
2023/01/12 01:29:56;;;;;;;34.03;4.78;;;;;;;;;;6249217;22;20068;-80
2023/01/12 01:32:22;;;;;;;21.85;4.20;;;;;;;;;;6252131;22;20031;-80
2023/01/12 01:34:49;;;;;;;23.45;3.88;;;;;;;;;;6225290;22;20035;-80
2023/01/12 01:37:15;;;;;;;17.92;3.90;;;;;;;;;;6249744;22;20103;-81
2023/01/12 01:39:42;;;;;;;27.00;4.18;;;;;;;;;;6224171;22;20024;-80
2023/01/12 01:42:26;;;;;;;26.23;4.05;;;;;;;;;;6249786;22;20024;-81
2023/01/12 01:44:55;;;;;;;21.58;3.80;;;;;;;;;;6249852;22;20028;-81
2023/01/12 01:47:33;;;;;;;17.45;3.83;;;;;;;;;;6251552;22;20017;-81
2023/01/12 01:50:02;;;;;;;25.73;4.57;;;;;;;;;;6223969;22;20474;-80
2023/01/12 01:52:36;;;;;;;26.98;4.50;;;;;;;;;;6250858;22;20024;-81
2023/01/12 01:55:23;;;;;;;28.17;4.88;;;;;;;;;;6250973;22;20052;-80
2023/01/12 01:58:16;;;;;;;25.48;4.28;;;;;;;;;;6251036;22;20882;-80
2023/01/12 02:00:43;;;;;;;16.25;4.38;;;;;;;;;;6245354;22;20031;-80
2023/01/12 02:03:10;;;;;;;19.17;4.15;;;;;;;;;;6225325;22;20051;-80
2023/01/12 02:05:38;;;;;;;21.20;3.83;;;;;;;;;;6251730;22;20029;-80
2023/01/12 02:08:13;;;;;;;20.30;4.68;;;;;;;;;;6252542;22;20035;-80
2023/01/12 02:10:40;;;;;;;16.98;3.92;;;;;;;;;;6253121;22;20035;-80
2023/01/12 02:18:53;;;;;;;14.27;3.30;;;;;;;;;;6251967;22;20048;-80
2023/01/12 02:21:22;;;;;;;17.02;3.53;;;;;;;;;;6251786;22;20027;-80
2023/01/12 02:24:07;;;;;;;10.98;2.58;;;;;;;;;;6253158;22;20842;-80
2023/01/12 02:26:52;;;;;;;15.10;2.70;;;;;;;;;;6226302;22;20005;-80
2023/01/12 02:29:22;;;;;;;9.85;2.00;;;;;;;;;;6254124;22;20020;-80
2023/01/12 02:31:57;;;;;;;17.67;2.50;;;;;;;;;;6253354;22;20020;-80
2023/01/12 02:34:27;;;;;;;10.75;2.38;;;;;;;;;;6252670;22;20884;-80
2023/01/12 02:37:12;;;;;;;10.45;2.00;;;;;;;;;;6252112;22;20012;-80
2023/01/12 02:39:38;;;;;;;8.90;1.95;;;;;;;;;;6226236;22;20013;-80
2023/01/12 02:45:23;;;;;;;5.90;1.42;;;;;;;;;;6253572;22;20044;-80
2023/01/12 02:48:08;;;;;;;8.25;1.83;;;;;;;;;;6252822;22;20017;-80
2023/01/12 02:50:34;;;;;;;6.45;1.40;;;;;;;;;;6253969;22;20052;-80
2023/01/12 02:53:24;;;;;;;8.40;1.95;;;;;;;;;;6253359;22;20020;-80
2023/01/12 02:55:51;;;;;;;9.02;1.90;;;;;;;;;;6236941;22;20016;-80
2023/01/12 02:58:19;;;;;;;5.45;1.23;;;;;;;;;;6252342;22;20051;-79
2023/01/12 03:00:48;;;;;;;10.40;2.00;;;;;;;;;;6252974;22;20008;-80
2023/01/12 03:03:16;;;;;;;14.05;2.20;;;;;;;;;;6227615;22;20033;-80
2023/01/12 03:05:42;;;;;;;7.95;1.73;;;;;;;;;;6253933;22;20466;-80
2023/01/12 03:08:12;;;;;;;8.05;1.90;;;;;;;;;;6253203;22;20032;-79
2023/01/12 03:10:52;;;;;;;5.35;1.70;;;;;;;;;;6254338;22;20016;-79
2023/01/12 03:13:19;;;;;;;11.75;2.20;;;;;;;;;;6254866;22;20023;-79
2023/01/12 03:15:47;;;;;;;8.00;2.22;;;;;;;;;;6255372;22;20853;-80
2023/01/12 03:18:15;;;;;;;8.85;2.33;;;;;;;;;;6255776;22;20017;-80
2023/01/12 03:20:53;;;;;;;9.32;2.75;;;;;;;;;;6257330;22;20084;-79
2023/01/12 03:23:21;;;;;;;8.40;2.25;;;;;;;;;;6259174;22;20019;-80
2023/01/12 03:25:50;;;;;;;10.52;2.78;;;;;;;;;;6229602;22;20024;-80
2023/01/12 03:28:17;;;;;;;12.48;2.97;;;;;;;;;;6231641;22;20027;-80
2023/01/12 03:30:45;;;;;;;15.45;3.33;;;;;;;;;;6257934;22;20021;-79
2023/01/12 03:33:12;;;;;;;10.35;3.42;;;;;;;;;;6255640;22;20018;-79
2023/01/12 03:35:42;;;;;;;13.32;2.83;;;;;;;;;;6256611;22;20028;-79
2023/01/12 03:38:15;;;;;;;12.73;2.97;;;;;;;;;;6228591;22;20027;-79
2023/01/12 03:40:48;;;;;;;12.68;3.65;;;;;;;;;;6254264;22;20016;-79
2023/01/12 03:43:16;;;;;;;12.18;3.53;;;;;;;;;;6256628;22;20107;-78
2023/01/12 03:45:57;;;;;;;14.13;3.22;;;;;;;;;;6256160;22;20020;-79
2023/01/12 03:48:29;;;;;;;15.98;2.83;;;;;;;;;;6256048;22;20139;-79
2023/01/12 03:50:58;;;;;;;11.55;2.60;;;;;;;;;;6228733;22;20024;-78
2023/01/12 03:53:25;;;;;;;12.32;3.08;;;;;;;;;;6257787;22;20024;-78
2023/01/12 03:55:53;;;;;;;14.30;2.85;;;;;;;;;;6256198;22;20036;-79
2023/01/12 03:58:21;;;;;;;12.48;2.50;;;;;;;;;;6257560;22;20452;-78
2023/01/12 04:00:47;;;;;;;10.13;1.75;;;;;;;;;;6255487;22;20025;-79
2023/01/12 04:03:14;;;;;;;11.13;2.38;;;;;;;;;;6255972;22;20036;-78
2023/01/12 04:05:42;;;;;;;10.38;1.83;;;;;;;;;;6226308;22;20024;-78
2023/01/12 04:08:10;;;;;;;9.00;1.80;;;;;;;;;;6254414;22;20035;-78
2023/01/12 04:10:36;;;;;;;10.93;2.13;;;;;;;;;;6254200;22;20414;-78
2023/01/12 04:13:02;;;;;;;6.50;1.60;;;;;;;;;;6252088;22;20027;-79
2023/01/12 04:15:29;;;;;;;9.32;1.65;;;;;;;;;;6253002;22;20009;-78
2023/01/12 04:17:55;;;;;;;8.55;1.70;;;;;;;;;;6226807;22;20021;-78
2023/01/12 04:20:22;;;;;;;8.50;1.75;;;;;;;;;;6252983;22;20025;-78
2023/01/12 04:22:48;;;;;;;7.65;1.75;;;;;;;;;;6254495;22;20016;-78
2023/01/12 04:25:16;;;;;;;7.75;2.15;;;;;;;;;;6253754;22;20088;-78
2023/01/12 04:27:50;;;;;;;15.45;2.00;;;;;;;;;;6227146;22;20036;-78
2023/01/12 04:30:19;;;;;;;7.15;1.45;;;;;;;;;;6255153;22;20031;-78
2023/01/12 04:32:45;;;;;;;12.48;2.13;;;;;;;;;;6227808;22;20836;-78
2023/01/12 04:35:12;;;;;;;6.68;1.60;;;;;;;;;;6231388;22;20033;-79
2023/01/12 04:37:39;;;;;;;8.73;1.80;;;;;;;;;;6254993;22;20043;-79
2023/01/12 04:40:07;;;;;;;6.03;1.80;;;;;;;;;;6255045;22;20135;-78
2023/01/12 04:45:18;;;;;;;7.70;1.77;;;;;;;;;;6253951;22;20024;-78
2023/01/12 04:47:45;;;;;;;8.23;1.90;;;;;;;;;;6228272;22;20013;-79
2023/01/12 04:50:11;;;;;;;5.10;1.48;;;;;;;;;;6254751;22;20025;-78
2023/01/12 04:52:38;;;;;;;8.65;2.25;;;;;;;;;;6253493;22;20016;-79
2023/01/12 04:55:05;;;;;;;4.10;1.50;;;;;;;;;;6230482;22;20032;-79
2023/01/12 04:57:31;;;;;;;5.90;1.50;;;;;;;;;;6256930;22;20020;-79
2023/01/12 04:59:57;;;;;;;11.98;1.80;;;;;;;;;;6230338;22;20031;-78
2023/01/12 05:02:24;;;;;;;12.07;1.75;;;;;;;;;;6256970;22;20031;-79
2023/01/12 05:04:50;;;;;;;9.95;1.90;;;;;;;;;;6229438;22;20036;-79
2023/01/12 05:07:17;;;;;;;8.95;2.08;;;;;;;;;;6258523;22;20023;-79
2023/01/12 05:12:28;;;;;;;5.38;1.40;;;;;;;;;;6257364;22;20027;-79
2023/01/12 05:14:55;;;;;;;8.18;1.58;;;;;;;;;;6257632;22;20005;-79
2023/01/12 05:17:21;;;;;;;6.35;2.00;;;;;;;;;;6257983;22;20080;-79
2023/01/12 05:19:48;;;;;;;8.30;1.80;;;;;;;;;;6258121;22;20025;-78
2023/01/12 05:22:15;;;;;;;7.80;1.77;;;;;;;;;;6231601;22;20020;-78
2023/01/12 05:24:41;;;;;;;8.63;1.90;;;;;;;;;;6231875;22;20103;-79
2023/01/12 05:27:07;;;;;;;8.40;1.73;;;;;;;;;;6259140;22;20031;-79
2023/01/12 05:29:34;;;;;;;6.95;1.48;;;;;;;;;;6260673;22;20036;-79
2023/01/12 05:32:00;;;;;;;6.53;1.73;;;;;;;;;;6261511;22;20020;-78
2023/01/12 05:34:26;;;;;;;5.32;1.10;;;;;;;;;;6259651;22;20076;-80
2023/01/12 05:36:53;;;;;;;5.97;1.25;;;;;;;;;;6259636;22;20071;-79
2023/01/12 05:39:20;;;;;;;4.95;1.40;;;;;;;;;;6260708;22;20008;-80
2023/01/12 05:44:32;;;;;;;11.77;1.85;;;;;;;;;;6260202;22;20670;-79
2023/01/12 05:46:58;;;;;;;8.07;1.30;;;;;;;;;;6258135;22;20025;-79
2023/01/12 05:49:25;;;;;;;7.88;1.70;;;;;;;;;;6258549;22;20061;-80
2023/01/12 05:51:51;;;;;;;8.80;1.60;;;;;;;;;;6260057;22;20028;-80
2023/01/12 05:54:17;;;;;;;4.57;1.17;;;;;;;;;;6260463;22;20029;-79
2023/01/12 05:59:42;;;;;;;10.20;1.77;;;;;;;;;;6263505;22;20017;-80
2023/01/12 06:02:12;;;;;;;7.28;1.38;;;;;;;;;;6256078;22;20036;-80
2023/01/12 06:04:39;;;;;;;6.77;1.50;;;;;;;;;;6260463;22;20021;-80
2023/01/12 06:07:05;;;;;;;6.70;1.40;;;;;;;;;;6261846;22;20343;-80
2023/01/12 06:09:31;;;;;;;4.32;1.35;;;;;;;;;;6236467;22;20009;-79
2023/01/12 06:14:44;;;;;;;4.18;1.38;;;;;;;;;;6260779;22;20024;-79
2023/01/12 06:17:11;;;;;;;8.88;2.10;;;;;;;;;;6260486;22;20024;-78
2023/01/12 06:19:37;;;;;;;4.65;1.77;;;;;;;;;;6231399;22;20333;-79
2023/01/12 06:22:06;;;;;;;5.90;1.58;;;;;;;;;;6260495;22;20017;-79
2023/01/12 06:24:32;;;;;;;5.10;1.70;;;;;;;;;;6234362;22;20024;-79
2023/01/12 06:26:59;;;;;;;4.93;1.55;;;;;;;;;;6256195;22;20020;-78
2023/01/12 06:29:25;;;;;;;5.07;1.45;;;;;;;;;;6228381;22;20016;-78
2023/01/12 06:31:51;;;;;;;3.83;1.50;;;;;;;;;;6232863;22;20027;-79
2023/01/12 06:34:19;;;;;;;5.50;1.40;;;;;;;;;;6252409;22;20031;-78
2023/01/12 06:36:45;;;;;;;5.63;1.30;;;;;;;;;;6226823;22;20069;-78
2023/01/12 06:39:12;;;;;;;6.88;1.67;;;;;;;;;;6259571;22;20028;-79
2023/01/12 06:44:23;;;;;;;5.80;1.40;;;;;;;;;;6257435;22;20033;-78
2023/01/12 06:46:49;;;;;;;3.97;1.23;;;;;;;;;;6255279;22;20013;-78
2023/01/12 06:49:16;;;;;;;6.05;1.48;;;;;;;;;;6233114;22;20036;-79
2023/01/12 06:51:42;;;;;;;3.20;1.27;;;;;;;;;;6258224;22;20099;-78
2023/01/12 06:54:09;;;;;;;3.40;1.23;;;;;;;;;;6258793;22;20025;-78
2023/01/12 06:56:35;;;;;;;3.17;1.20;;;;;;;;;;6257720;22;20037;-79
2023/01/12 06:59:01;;;;;;;2.97;1.17;;;;;;;;;;6257056;22;20672;-78
2023/01/12 07:01:28;;;;;;;3.30;1.20;;;;;;;;;;6233130;22;20025;-78
2023/01/12 07:03:54;;;;;;;3.42;1.10;;;;;;;;;;6258157;22;20059;-78
2023/01/12 07:06:21;;;;;;;3.60;1.20;;;;;;;;;;6258353;22;20048;-78
2023/01/12 07:08:47;;;;;;;5.00;1.23;;;;;;;;;;6257651;22;20012;-78
2023/01/12 07:11:16;;;;;;;5.68;1.20;;;;;;;;;;6259912;22;20056;-78
2023/01/12 07:13:43;;;;;;;5.65;1.55;;;;;;;;;;6259901;22;20021;-77
2023/01/12 07:16:09;;;;;;;3.00;1.30;;;;;;;;;;6259471;22;20069;-77
2023/01/12 07:18:36;;;;;;;2.92;1.15;;;;;;;;;;6232921;22;20019;-78
2023/01/12 07:21:06;;;;;;;3.83;1.35;;;;;;;;;;6256839;22;20016;-78
2023/01/12 07:23:33;;;;;;;5.60;2.03;;;;;;;;;;6256094;22;20019;-78
2023/01/12 07:26:00;;;;;;;6.15;1.30;;;;;;;;;;6231708;22;20009;-79
2023/01/12 07:28:26;;;;;;;3.45;1.50;;;;;;;;;;6257628;22;20013;-78
2023/01/12 07:30:57;;;;;;;6.93;2.20;;;;;;;;;;6256866;22;20028;-77
2023/01/12 07:33:24;;;;;;;4.28;1.70;;;;;;;;;;6257397;22;20020;-78
2023/01/12 07:35:50;;;;;;;5.88;1.67;;;;;;;;;;6258719;22;20060;-78
2023/01/12 07:38:16;;;;;;;7.82;2.05;;;;;;;;;;6257247;22;20044;-78
2023/01/12 07:40:43;;;;;;;4.53;1.63;;;;;;;;;;6259669;22;20055;-77
2023/01/12 07:43:18;;;;;;;5.63;1.85;;;;;;;;;;6230103;22;20108;-77
2023/01/12 07:45:45;;;;;;;5.78;1.80;;;;;;;;;;6256097;22;20079;-78
2023/01/12 07:48:15;;;;;;;6.03;1.70;;;;;;;;;;6253844;22;20064;-77
2023/01/12 07:50:43;;;;;;;4.75;1.63;;;;;;;;;;6255534;22;20027;-78
2023/01/12 07:53:10;;;;;;;6.60;1.55;;;;;;;;;;6256640;22;20025;-78
2023/01/12 07:55:38;;;;;;;6.78;1.70;;;;;;;;;;6231004;22;20009;-78
2023/01/12 07:58:07;;;;;;;7.25;2.10;;;;;;;;;;6258497;22;20092;-77
2023/01/12 08:00:34;;;;;;;6.32;2.17;;;;;;;;;;6230774;22;20017;-78
2023/01/12 08:03:05;;;;;;;5.15;1.88;;;;;;;;;;6253012;22;20055;-78
2023/01/12 08:05:32;;;;;;;8.13;2.00;;;;;;;;;;6258768;22;20028;-77
2023/01/12 08:07:58;;;;;;;7.00;2.05;;;;;;;;;;6254357;22;20013;-78
2023/01/12 08:10:26;;;;;;;7.05;2.05;;;;;;;;;;6257823;22;20017;-78
2023/01/12 08:12:53;;;;;;;9.38;2.30;;;;;;;;;;6257885;22;20047;-77
2023/01/12 08:15:19;;;;;;;7.20;2.13;;;;;;;;;;6229307;22;20035;-78
2023/01/12 08:17:51;;;;;;;7.40;2.20;;;;;;;;;;6230146;22;20021;-77
2023/01/12 08:20:20;;;;;;;8.57;2.25;;;;;;;;;;6230704;22;20030;-78
2023/01/12 08:22:50;;;;;;;5.30;2.00;;;;;;;;;;6256110;22;20004;-77
2023/01/12 08:25:19;;;;;;;10.17;2.10;;;;;;;;;;6257427;22;20017;-78
2023/01/12 08:27:48;;;;;;;5.80;1.92;;;;;;;;;;6255474;22;20015;-77
2023/01/12 08:30:16;;;;;;;7.03;2.17;;;;;;;;;;6231599;22;20025;-78
2023/01/12 08:32:43;;;;;;;10.68;2.65;;;;;;;;;;6256546;22;20020;-78
2023/01/12 08:35:10;;;;;;;10.05;2.45;;;;;;;;;;6259930;22;20027;-77
2023/01/12 08:37:36;;;;;;;8.23;2.05;;;;;;;;;;6233491;22;20040;-78
2023/01/12 08:40:03;;;;;;;7.72;1.95;;;;;;;;;;6259616;22;20017;-77
2023/01/12 08:42:30;;;;;;;6.72;1.95;;;;;;;;;;6258559;22;20015;-78
2023/01/12 08:44:57;;;;;;;7.18;2.13;;;;;;;;;;6257441;22;20039;-78
2023/01/12 08:47:29;;;;;;;8.35;2.00;;;;;;;;;;6258244;22;20024;-77
2023/01/12 08:49:56;;;;;;;7.40;1.95;;;;;;;;;;6257668;22;20023;-78
2023/01/12 08:52:24;;;;;;;7.57;2.17;;;;;;;;;;6258143;22;20017;-77
2023/01/12 08:54:57;;;;;;;6.82;1.70;;;;;;;;;;6255416;22;20462;-77
2023/01/12 08:57:28;;;;;;;6.05;2.03;;;;;;;;;;6229582;22;20016;-78
2023/01/12 08:59:59;;;;;;;7.25;2.03;;;;;;;;;;6230665;22;20119;-77
2023/01/12 09:02:26;;;;;;;5.55;1.90;;;;;;;;;;6255667;22;20012;-78
2023/01/12 09:04:58;;;;;;;7.93;2.20;;;;;;;;;;6228109;22;20024;-77
2023/01/12 09:07:48;;;;;;;;;;;;;;;;;;;;;
2023/01/12 09:10:18;;;;;;;6.75;2.20;;;;;;;;;;6256909;22;20025;-77
2023/01/12 09:12:44;;;;;;;8.55;2.45;;;;;;;;;;6230251;22;20021;-78
2023/01/12 09:15:13;;;;;;;6.95;2.30;;;;;;;;;;6256044;22;20013;-78
2023/01/12 09:17:42;;;;;;;16.95;3.58;;;;;;;;;;6254478;22;20025;-77
2023/01/12 09:20:11;;;;;;;6.28;2.63;;;;;;;;;;6227507;22;20103;-76
2023/01/12 09:22:38;;;;;;;7.75;2.30;;;;;;;;;;6255538;22;20009;-77
2023/01/12 09:25:04;;;;;;;7.43;2.30;;;;;;;;;;6253896;22;20012;-77
2023/01/12 09:27:31;;;;;;;6.95;2.15;;;;;;;;;;6255271;22;20019;-78
2023/01/12 09:29:57;;;;;;;8.85;2.92;;;;;;;;;;6253945;22;20029;-77
2023/01/12 09:32:23;;;;;;;7.30;2.05;;;;;;;;;;6254263;22;20803;-77
2023/01/12 09:35:01;;;;;;;10.35;2.30;;;;;;;;;;6231274;22;20493;-78
2023/01/12 09:37:28;;;;;;;8.80;2.42;;;;;;;;;;6226815;22;20012;-77
2023/01/12 09:39:54;;;;;;;9.85;2.03;;;;;;;;;;6254281;22;20023;-77
2023/01/12 09:48:08;;;;;;;8.75;2.20;;;;;;;;;;6250278;22;20020;-77
2023/01/12 09:50:36;;;;;;;;;;;;;;;;;;6254954;22;20069;-77
2023/01/12 09:53:10;;;;;;;6.47;1.95;;;;;;;;;;6229328;22;41946;-77
2023/01/12 09:55:56;;;;;;;9.63;2.38;;;;;;;;;;6252430;22;20029;-78
2023/01/12 09:58:35;;;;;;;9.45;2.28;;;;;;;;;;6226674;22;20068;-76
2023/01/12 10:01:07;;;;;;;13.63;2.47;;;;;;;;;;6252138;22;20912;-78
2023/01/12 10:03:40;;;;;;;10.27;1.95;;;;;;;;;;6255700;22;20060;-77
2023/01/12 10:06:13;;;;;;;14.88;2.60;;;;;;;;;;6222418;22;20024;-77
2023/01/12 10:08:43;;;;;;;10.38;2.13;;;;;;;;;;6220966;22;20024;-77
2023/01/12 10:11:09;;;;;;;12.23;1.88;;;;;;;;;;6254248;22;20035;-77
2023/01/12 10:13:44;;;;;;;7.65;1.70;;;;;;;;;;6253130;22;20088;-77
2023/01/12 10:16:15;;;;;;;13.65;2.25;;;;;;;;;;6254649;22;20079;-77
2023/01/12 10:18:44;;;;;;;16.40;2.05;;;;;;;;;;6252925;22;20452;-78
2023/01/12 10:21:12;;;;;;;;;;;;;;;;;;6227366;22;20020;-77
2023/01/12 10:23:39;;;;;;;9.50;1.83;;;;;;;;;;6252026;22;45930;-78
2023/01/12 10:26:08;;;;;;;16.48;1.80;;;;;;;;;;6253308;22;20016;-77
2023/01/12 10:28:35;;;;;;;14.18;2.05;;;;;;;;;;6252626;22;20040;-77
2023/01/12 10:31:02;;;;;;;15.35;2.50;;;;;;;;;;6226509;22;20025;-77
2023/01/12 10:33:30;;;;;;;14.25;2.10;;;;;;;;;;6253667;22;20028;-77
2023/01/12 10:36:01;;;;;;;11.25;2.08;;;;;;;;;;6253877;22;20030;-77
2023/01/12 10:38:30;;;;;;;9.30;2.20;;;;;;;;;;6226994;22;20481;-77
2023/01/12 10:41:08;;;;;;;11.98;2.08;;;;;;;;;;6252780;22;20065;-77
2023/01/12 10:43:35;;;;;;;10.90;2.38;;;;;;;;;;6252696;22;20841;-77
2023/01/12 10:46:02;;;;;;;10.88;2.40;;;;;;;;;;6253133;22;20036;-77
2023/01/12 10:48:29;;;;;;;9.57;2.10;;;;;;;;;;6252332;22;20047;-77
2023/01/12 10:50:57;;;;;;;7.03;1.92;;;;;;;;;;6252973;22;20867;-78
2023/01/12 10:53:42;;;;;;;10.52;2.33;;;;;;;;;;6227034;22;20016;-77
2023/01/12 10:56:27;;;;;;;11.77;2.25;;;;;;;;;;6253161;22;20054;-77
2023/01/12 10:58:56;;;;;;;10.95;2.10;;;;;;;;;;6252611;22;20105;-77
2023/01/12 11:01:23;;;;;;;8.82;2.25;;;;;;;;;;6253984;22;20108;-77
2023/01/12 11:03:49;;;;;;;7.90;2.13;;;;;;;;;;6219155;22;20009;-77
2023/01/12 11:06:24;;;;;;;6.70;2.22;;;;;;;;;;6249136;22;20094;-77
2023/01/12 11:08:50;;;;;;;6.30;2.30;;;;;;;;;;6223608;22;20017;-77
2023/01/12 11:11:25;;;;;;;5.60;1.92;;;;;;;;;;6249961;22;20035;-77
2023/01/12 11:13:53;;;;;;;3.78;1.30;;;;;;;;;;6249161;22;20025;-77
2023/01/12 11:16:24;;;;;;;6.63;1.17;;;;;;;;;;6222541;22;20028;-77
2023/01/12 11:19:09;;;;;;;6.97;1.20;;;;;;;;;;6221561;22;20016;-77
2023/01/12 11:21:36;;;;;;;4.03;0.90;;;;;;;;;;6250345;22;20024;-77
2023/01/12 11:24:13;;;;;;;2.30;0.77;;;;;;;;;;6223463;22;20031;-77
2023/01/12 11:27:03;;;;;;;2.80;0.70;;;;;;;;;;6249486;22;20024;-77
2023/01/12 11:29:32;;;;;;;2.47;0.70;;;;;;;;;;6201960;22;20017;-77
2023/01/12 11:32:03;;;;;;;1.92;0.70;;;;;;;;;;6250777;22;20028;-77
2023/01/12 11:34:36;;;;;;;3.17;0.73;;;;;;;;;;6251084;22;20417;-77
2023/01/12 11:37:12;;;;;;;3.65;0.70;;;;;;;;;;6249172;22;20878;-77
2023/01/12 11:39:40;;;;;;;1.25;0.50;;;;;;;;;;6249025;22;20068;-77
2023/01/12 11:45:31;;;;;;;2.00;0.60;;;;;;;;;;6249366;22;20020;-77
2023/01/12 11:48:01;;;;;;;2.28;0.80;;;;;;;;;;6149262;22;20060;-77
2023/01/12 11:50:32;;;;;;;2.17;0.75;;;;;;;;;;6250751;22;20031;-79
2023/01/12 11:52:58;;;;;;;1.55;0.65;;;;;;;;;;6248653;22;20437;-77
2023/01/12 11:55:25;;;;;;;2.88;0.80;;;;;;;;;;6249038;22;20023;-77
2023/01/12 11:58:10;;;;;;;2.67;0.60;;;;;;;;;;6246750;22;20635;-77
2023/01/12 12:00:43;;;;;;;3.35;1.00;;;;;;;;;;6248937;22;20075;-77
2023/01/12 12:03:12;;;;;;;2.92;0.52;;;;;;;;;;6245242;22;20051;-77
2023/01/12 12:05:55;;;;;;;3.05;0.60;;;;;;;;;;6246789;22;20104;-77
2023/01/12 12:08:21;;;;;;;2.22;0.90;;;;;;;;;;6220496;22;20880;-77
2023/01/12 12:10:48;;;;;;;1.88;0.70;;;;;;;;;;6248952;22;20059;-77
2023/01/12 12:13:14;;;;;;;1.60;0.60;;;;;;;;;;6222097;22;20040;-77
2023/01/12 12:15:57;;;;;;;2.15;0.70;;;;;;;;;;6219907;22;20398;-77
2023/01/12 12:18:24;;;;;;;4.03;0.90;;;;;;;;;;6245973;22;20027;-77
2023/01/12 12:21:06;;;;;;;2.85;0.80;;;;;;;;;;6194231;23;20057;-77
2023/01/12 12:23:48;;;;;;;4.82;0.90;;;;;;;;;;6216595;23;20100;-76
2023/01/12 12:26:24;;;;;;;4.47;1.05;;;;;;;;;;6191014;23;20014;-77
2023/01/12 12:28:50;;;;;;;2.22;0.82;;;;;;;;;;6218362;23;20037;-77
2023/01/12 12:31:20;;;;;;;4.68;0.90;;;;;;;;;;6189797;23;20021;-77
2023/01/12 12:33:52;;;;;;;2.15;0.80;;;;;;;;;;6192432;23;20025;-76
2023/01/12 12:36:45;;;;;;;3.10;0.85;;;;;;;;;;6218891;23;20053;-77
2023/01/12 12:39:11;;;;;;;1.85;0.77;;;;;;;;;;6181497;23;20017;-77
2023/01/12 12:47:32;;;;;;;2.25;0.70;;;;;;;;;;6218183;23;20017;-77
2023/01/12 12:50:02;;;;;;;3.50;0.93;;;;;;;;;;6218337;23;20076;-78
2023/01/12 12:52:35;;;;;;;1.88;0.65;;;;;;;;;;6192131;23;20112;-77
2023/01/12 12:55:02;;;;;;;2.70;0.90;;;;;;;;;;6218434;23;20033;-77
2023/01/12 13:00:39;;;;;;;2.08;0.75;;;;;;;;;;6279925;22;20016;-77
2023/01/12 13:03:37;;;;;;;1.75;0.70;;;;;;;;;;6284957;22;20035;-77
2023/01/12 13:06:16;;;;;;;5.35;0.80;;;;;;;;;;6281375;22;20031;-78
2023/01/12 13:08:44;;;;;;;2.80;0.90;;;;;;;;;;6281047;22;20028;-77
2023/01/12 13:11:10;;;;;;;3.10;1.02;;;;;;;;;;6280052;22;20070;-78
2023/01/12 13:13:37;;;;;;;1.98;0.80;;;;;;;;;;6281888;22;20024;-77
2023/01/12 13:16:10;;;;;;;4.03;0.80;;;;;;;;;;6276978;22;20020;-78
2023/01/12 13:18:51;;;;;;;2.83;0.88;;;;;;;;;;6279017;22;20024;-77
2023/01/12 13:21:27;;;;;;;2.13;0.77;;;;;;;;;;6279769;22;20040;-78
2023/01/12 13:24:13;;;;;;;3.20;0.90;;;;;;;;;;6276717;22;20032;-77
2023/01/12 13:26:41;;;;;;;2.45;0.75;;;;;;;;;;6279512;22;20042;-77
2023/01/12 13:29:22;;;;;;;4.88;0.93;;;;;;;;;;6281028;22;20058;-77
2023/01/12 13:31:49;;;;;;;3.40;0.90;;;;;;;;;;6279596;22;20172;-78
2023/01/12 13:34:38;;;;;;;3.65;1.08;;;;;;;;;;6282991;22;20034;-77
2023/01/12 13:37:23;;;;;;;6.45;1.10;;;;;;;;;;6283611;22;20032;-78
2023/01/12 13:40:09;;;;;;;3.92;1.27;;;;;;;;;;6282378;22;20863;-78
2023/01/12 13:45:21;;;;;;;4.45;1.10;;;;;;;;;;6284403;22;20024;-78
2023/01/12 13:47:50;;;;;;;6.03;1.13;;;;;;;;;;6283240;22;20020;-78
2023/01/12 13:50:17;;;;;;;4.00;0.98;;;;;;;;;;6288227;22;20076;-78
2023/01/12 13:52:55;;;;;;;6.60;1.23;;;;;;;;;;6283570;22;20067;-78
2023/01/12 13:55:23;;;;;;;8.52;1.20;;;;;;;;;;6283890;22;20068;-78
2023/01/12 13:57:56;;;;;;;3.15;1.27;;;;;;;;;;6285952;22;20071;-78
2023/01/12 14:00:22;;;;;;;3.03;1.25;;;;;;;;;;6288386;22;20036;-78
2023/01/12 14:02:50;;;;;;;3.30;1.40;;;;;;;;;;6287489;22;20059;-78
2023/01/12 14:05:20;;;;;;;4.63;1.60;;;;;;;;;;6289137;22;20028;-78
2023/01/12 14:07:48;;;;;;;3.88;1.15;;;;;;;;;;6262325;22;20024;-78
2023/01/12 14:10:35;;;;;;;3.70;1.52;;;;;;;;;;6261937;22;20020;-78
2023/01/12 14:13:10;;;;;;;3.88;1.50;;;;;;;;;;6288167;22;20017;-78
2023/01/12 14:18:40;;;;;;;5.53;1.40;;;;;;;;;;6287958;22;20027;-78
2023/01/12 14:21:18;;;;;;;4.57;1.70;;;;;;;;;;6288448;22;20019;-78
2023/01/12 14:23:45;;;;;;;3.85;1.30;;;;;;;;;;6286603;22;20031;-78
2023/01/12 14:26:16;;;;;;;3.83;1.77;;;;;;;;;;6286991;22;20016;-78
2023/01/12 14:28:44;;;;;;;3.08;1.27;;;;;;;;;;6262326;22;20044;-78
2023/01/12 14:31:23;;;;;;;4.65;1.65;;;;;;;;;;6262942;22;20019;-78
2023/01/12 14:33:53;;;;;;;3.70;1.67;;;;;;;;;;6260986;22;20028;-78
2023/01/12 14:36:25;;;;;;;3.53;1.40;;;;;;;;;;6288931;22;20016;-79
2023/01/12 14:38:52;;;;;;;3.78;1.85;;;;;;;;;;6289559;22;20012;-78
2023/01/12 14:46:53;;;;;;;5.50;1.95;;;;;;;;;;6285328;22;20047;-78
2023/01/12 14:49:21;;;;;;;4.45;1.70;;;;;;;;;;6288500;22;20012;-78
2023/01/12 14:51:52;;;;;;;5.47;1.70;;;;;;;;;;6261631;22;20023;-78
2023/01/12 14:54:19;;;;;;;5.38;1.90;;;;;;;;;;6287171;22;20942;-78
2023/01/12 14:56:49;;;;;;;4.22;2.05;;;;;;;;;;6287551;22;20024;-78
2023/01/12 14:59:19;;;;;;;4.63;1.92;;;;;;;;;;6260419;22;20016;-78
2023/01/12 15:01:45;;;;;;;4.55;1.88;;;;;;;;;;6261007;22;20666;-78
2023/01/12 15:04:22;;;;;;;5.25;2.20;;;;;;;;;;6289951;22;20071;-78
2023/01/12 15:06:59;;;;;;;5.00;1.88;;;;;;;;;;6258077;22;20855;-78
2023/01/12 15:09:33;;;;;;;4.75;1.95;;;;;;;;;;6285310;22;20071;-78
2023/01/12 15:12:18;;;;;;;5.25;1.80;;;;;;;;;;6288370;22;20022;-78
2023/01/12 15:14:44;;;;;;;4.38;1.70;;;;;;;;;;6287124;22;20024;-77
2023/01/12 15:25:35;;;;;;;4.22;1.60;;;;;;;;;;6288243;22;20600;-77
2023/01/12 15:28:02;;;;;;;6.50;1.58;;;;;;;;;;6286704;22;20074;-78
2023/01/12 15:30:29;;;;;;;6.30;1.65;;;;;;;;;;6286691;22;20020;-77
2023/01/12 15:32:56;;;;;;;3.80;1.50;;;;;;;;;;6284620;22;20012;-78
2023/01/12 15:35:26;;;;;;;5.28;1.60;;;;;;;;;;6259971;22;20273;-79
2023/01/12 15:37:53;;;;;;;3.53;1.70;;;;;;;;;;6261664;22;20017;-77
2023/01/12 15:40:20;;;;;;;3.83;1.40;;;;;;;;;;6285969;22;20048;-78
2023/01/12 15:42:47;;;;;;;6.13;1.90;;;;;;;;;;6259569;22;20004;-78
2023/01/12 15:45:18;;;;;;;4.28;1.83;;;;;;;;;;6285586;22;20263;-78
2023/01/12 15:47:45;;;;;;;3.65;1.83;;;;;;;;;;6286010;22;20481;-78
2023/01/12 15:50:12;;;;;;;6.28;2.30;;;;;;;;;;6286646;22;20028;-77
2023/01/12 15:52:38;;;;;;;9.98;2.90;;;;;;;;;;6262979;22;20934;-79
2023/01/12 15:55:05;;;;;;;8.90;4.03;;;;;;;;;;6291874;22;20013;-80
2023/01/12 15:57:32;;;;;;;7.05;3.75;;;;;;;;;;6290496;22;20027;-80
2023/01/12 15:59:58;;;;;;;10.80;5.88;;;;;;;;;;6293392;22;20039;-80
2023/01/12 16:02:33;;;;;;;5.63;2.58;;;;;;;;;;6292105;22;20012;-79
2023/01/12 16:05:00;;;;;;;5.82;3.05;;;;;;;;;;6265082;22;20012;-79